Skip Navigation Links
NOAA logo - Click to go to the NOAA homepage
NOAA's National Weather Service
Alaska Aviation Weather Unit
  NWS logo - Click to go to the NWS homepage
Left Navbar Graphic     03 AKDT = 11 GMT

   
NOAA is celebrating 200 years of science, service, and stewardship. Visit the NOAA 200th celebration Web site to learn more.
USA.gov is the U.S. Government's official Web portal to all Federal, state and local government Web resources and services.
Facebook
NWS on Facebook

AAWU Home :: Display TAF Add Bookmark
TAF PAAQ 290702Z 2907/3006 VRB03KT 3SM -SN SCT015 OVC025
      TEMPO 2907/2911 1 1/2SM -SN BKN015
     FM291100 VRB03KT 1SM -SN BR OVC015
     FM292100 VRB03KT P6SM SCT015 OVC040=

METAR PAAQ 290553Z AUTO 14003KT 10SM SCT018 BKN050 OVC085 M01/M02 A2949 RMK AO2 SLP992 60000 T10061017 10022 21006 53014 TSNO= SPECI PAAQ 290605Z AUTO 17003KT 5SM -SN BR BKN016 OVC055 M01/M02 A2950 RMK AO2 SNB0557 P0000 T10061017 TSNO= SPECI PAAQ 290630Z AUTO 19003KT 2 1/2SM -SN BR OVC016 M01/M01 A2950 RMK AO2 SNB0557 P0000 T10061011 TSNO= SPECI PAAQ 290650Z AUTO 22003KT 1 1/2SM -SN BR OVC019 M01/M01 A2950 RMK AO2 SNB0557 P0001 TSNO= METAR PAAQ 290653Z AUTO 23004KT 1 1/2SM -SN BR OVC019 M01/M01 A2950 RMK AO2 SNB0557 SLP995 P0001 T10111011 TSNO= SPECI PAAQ 290720Z AUTO 23004KT 1 1/2SM -SN BR BKN012 OVC018 M01/M01 A2950 RMK AO2 P0000 T10111011 TSNO= SPECI PAAQ 290739Z AUTO 22003KT 1 1/4SM -SN BR SCT012 OVC019 M01/M01 A2950 RMK AO2 P0001 T10111011 TSNO= METAR PAAQ 290753Z AUTO 24003KT 1 3/4SM -SN BR OVC021 M01/M01 A2950 RMK AO2 SLP992 P0001 T10111011 TSNO= SPECI PAAQ 290804Z AUTO 22004KT 1 1/2SM -SN BR FEW005 OVC021 M01/M01 A2950 RMK AO2 P0000 T10111011 TSNO= SPECI PAAQ 290826Z AUTO 22003KT 3/4SM -SN BR SCT005 OVC015 M01/M01 A2950 RMK AO2 P0002 T10111011 TSNO= SPECI PAAQ 290833Z AUTO 20003KT 1SM -SN BR FEW005 OVC015 M01/M01 A2950 RMK AO2 P0002 T10111011 TSNO= METAR PAAQ 290853Z AUTO 00000KT 1SM -SN BR FEW004 OVC017 M01/M01 A2950 RMK AO2 SLP993 P0003 60005 T10111011 400221044 55000 TSNO= SPECI PAAQ 290918Z AUTO 18003KT 3/4SM -SN BR FEW004 BKN013 OVC018 M02/M02 A2950 RMK AO2 P0002 T10171017 TSNO= SPECI PAAQ 290923Z AUTO 18003KT 1SM -SN BR OVC015 M02/M02 A2950 RMK AO2 P0002 T10171017 TSNO= PAAQ 290940Z AUTO 00000KT 1SM -SN BR BKN012 OVC017 M02/M02 A2950 RMK AO2 P0003 T10171017 TSNO= PAAQ 290950Z AUTO 17003KT 1SM -SN BR FEW004 BKN012 OVC017 M02/M02 A2950 RMK AO2 P0004 TSNO= METAR PAAQ 290953Z AUTO 16003KT 1SM -SN BR FEW004 OVC012 M02/M02 A2950 RMK AO2 SLP992 P0004 T10171017 TSNO= METAR PAAQ 291053Z AUTO 00000KT 1SM -SN BR SCT005 OVC010 M02/M02 A2949 RMK AO2 SLP989 P0004 T10171017 TSNO=
 Alaska TAF Map

NOAA's National Weather Service
Alaska Aviation Weather Unit
6930 Sand Lake Road
Anchorage, AK 99502-1845
Disclaimer
Credits
Glossary
Privacy Policy
About Us
Career Opportunities
Contact AAWU Internet Services Site last modified: April, 17th 2012